.
WxDataArchive / Data Records for 2014-11-16
2014-11-15 November 2014 2014-11-17

Data Records for Sunday, 16 November 2014

Time	Temp	Chill	HIndex	Humid	Dewpt	 Wind 	HiWind	WindDir	Rain 	Barom
-----	----	-----	------	-----	-----	------	------	-------	-----	-----
00:00	29.4	29.4	29.4	64	18.8	0	0	---	0.00	30.251 
00:05	29.4	29.4	29.4	63	18.4	0	0	---	0.00	30.251 
00:10	29.4	29.4	29.4	64	18.8	0	0	---	0.00	30.251 
00:15	29.4	29.4	29.4	63	18.4	0	0	---	0.00	30.248 
00:20	29.4	29.4	29.4	63	18.4	0	0	---	0.00	30.248 
00:25	29.4	29.4	29.4	63	18.4	0	0	---	0.00	30.248 
00:30	29.4	29.4	29.4	64	18.8	0	0	---	0.00	30.240 
00:35	29.4	29.4	29.4	63	18.4	0	0	---	0.00	30.240 
00:40	29.4	29.4	29.4	63	18.4	0	0	---	0.00	30.240 
00:45	29.4	29.4	29.4	64	18.8	0	0	---	0.00	30.235 
00:50	29.4	29.4	29.4	64	18.8	0	0	---	0.00	30.235 
00:55	29.4	29.4	29.4	64	18.8	0	0	---	0.00	30.235 
01:00	29.4	29.4	29.4	65	19.1	0	0	---	0.00	30.231 
01:05	29.4	29.4	29.4	64	18.8	0	1	248	0.00	30.231 
01:10	29.4	29.4	29.4	63	18.4	0	1	248	0.00	30.231 
01:15	29.5	29.5	29.5	63	18.5	0	0	---	0.00	30.219 
01:20	29.5	29.5	29.5	64	18.8	0	1	248	0.00	30.219 
01:25	29.7	29.7	29.7	64	19.0	0	1	248	0.00	30.219 
01:30	29.7	29.7	29.7	65	19.4	0	1	248	0.00	30.216 
01:35	29.7	29.7	29.7	65	19.4	0	1	248	0.00	30.216 
01:40	29.7	29.7	29.7	65	19.4	0	0	---	0.00	30.216 
01:45	29.7	29.7	29.7	65	19.4	0	1	248	0.00	30.214 
01:50	29.5	29.5	29.5	65	19.2	0	0	---	0.00	30.214 
01:55	29.5	29.5	29.5	65	19.2	0	1	248	0.00	30.214 
02:00	29.5	29.5	29.5	65	19.2	0	0	---	0.00	30.213 
02:05	29.5	29.5	29.5	65	19.2	0	0	---	0.00	30.213 
02:10	29.5	29.5	29.5	65	19.2	0	0	---	0.00	30.213 
02:15	29.5	29.5	29.5	65	19.2	0	0	---	0.00	30.210 
02:20	29.5	29.5	29.5	65	19.2	0	0	---	0.00	30.210 
02:25	29.5	29.5	29.5	65	19.2	0	0	---	0.00	30.210 
02:30	29.5	29.5	29.5	66	19.6	0	0	---	0.00	30.200 
02:35	29.4	29.4	29.4	65	19.1	0	0	---	0.00	30.200 
02:40	29.4	29.4	29.4	66	19.5	0	0	---	0.00	30.200 
02:45	29.4	29.4	29.4	66	19.5	0	0	---	0.00	30.201 
02:50	29.4	29.4	29.4	66	19.5	0	0	---	0.00	30.201 
02:55	29.4	29.4	29.4	66	19.5	0	0	---	0.00	30.201 
03:00	29.3	29.3	29.3	66	19.4	0	0	---	0.00	30.196 
03:05	29.3	29.3	29.3	66	19.4	0	1	248	0.00	30.196 
03:10	29.3	29.3	29.3	67	19.7	0	1	248	0.00	30.196 
03:15	29.1	29.1	29.1	67	19.5	0	1	248	0.00	30.185 
03:20	29.1	29.1	29.1	67	19.5	0	0	---	0.00	30.185 
03:25	29.0	29.0	29.0	68	19.8	0	0	---	0.00	30.185 
03:30	29.0	29.0	29.0	68	19.8	0	0	---	0.00	30.187 
03:35	29.0	29.0	29.0	68	19.8	0	0	---	0.00	30.187 
03:40	28.8	28.8	28.8	68	19.6	0	0	---	0.00	30.187 
03:45	28.8	28.8	28.8	69	19.9	0	0	---	0.00	30.181 
03:50	28.7	28.7	28.7	69	19.8	0	0	---	0.00	30.181 
03:55	28.7	28.7	28.7	69	19.8	0	0	---	0.00	30.181 
04:00	28.5	28.5	28.5	69	19.6	0	0	---	0.00	30.183 
04:05	28.5	28.5	28.5	69	19.6	0	0	---	0.00	30.183 
04:10	28.4	28.4	28.4	69	19.5	0	0	---	0.00	30.183 
04:15	28.4	28.4	28.4	70	19.9	0	0	---	0.00	30.183 
04:20	28.4	28.4	28.4	71	20.2	0	0	---	0.00	30.183 
04:25	28.4	28.4	28.4	71	20.2	0	0	---	0.00	30.183 
04:30	28.4	28.4	28.4	72	20.5	0	0	---	0.00	30.185 
04:35	28.4	28.4	28.4	72	20.5	0	0	---	0.00	30.185 
04:40	28.5	28.5	28.5	72	20.6	0	0	---	0.00	30.185 
04:45	28.5	28.5	28.5	73	21.0	0	0	---	0.00	30.184 
04:50	28.5	28.5	28.5	73	21.0	0	0	---	0.00	30.184 
04:55	28.5	28.5	28.5	73	21.0	0	1	248	0.00	30.184 
05:00	28.7	28.7	28.7	73	21.2	0	1	248	0.00	30.184 
05:05	28.7	28.7	28.7	74	21.5	0	1	248	0.00	30.184 
05:10	28.7	28.7	28.7	74	21.5	0	0	---	0.00	30.184 
05:15	28.7	28.7	28.7	74	21.5	0	0	---	0.00	30.181 
05:20	28.8	28.8	28.8	75	21.9	0	0	---	0.00	30.181 
05:25	28.8	28.8	28.8	75	21.9	0	0	---	0.00	30.181 
05:30	28.8	28.8	28.8	75	21.9	0	0	---	0.00	30.183 
05:35	28.8	28.8	28.8	76	22.2	0	0	---	0.00	30.183 
05:40	28.8	28.8	28.8	76	22.2	0	0	---	0.00	30.183 
05:45	28.8	28.8	28.8	76	22.2	0	0	---	0.00	30.172 
05:50	28.8	28.8	28.8	77	22.5	0	0	---	0.00	30.172 
05:55	28.8	28.8	28.8	77	22.5	0	0	---	0.00	30.172 
06:00	28.8	28.8	28.8	78	22.8	0	0	---	0.00	30.165 
06:05	28.7	28.7	28.7	78	22.7	0	0	---	0.00	30.165 
06:10	28.7	28.7	28.7	78	22.7	0	0	---	0.00	30.165 
06:15	28.7	28.7	28.7	78	22.7	0	1	248	0.00	30.156 
06:20	28.7	28.7	28.7	78	22.7	0	0	---	0.00	30.156 
06:25	28.5	28.5	28.5	79	22.8	0	0	---	0.00	30.156 
06:30	28.5	28.5	28.5	79	22.8	0	0	---	0.00	30.157 
06:35	28.4	28.4	28.4	79	22.7	0	0	---	0.00	30.157 
06:40	28.4	28.4	28.4	79	22.7	0	0	---	0.00	30.157 
06:45	28.4	28.4	28.4	80	23.0	0	0	---	0.00	30.169 
06:50	28.4	28.4	28.4	80	23.0	0	0	---	0.00	30.169 
06:55	28.2	28.2	28.2	80	22.8	0	0	---	0.00	30.169 
07:00	28.2	28.2	28.2	80	22.8	0	0	---	0.00	30.162 
07:05	28.2	28.2	28.2	81	23.1	0	0	---	0.00	30.162 
07:10	28.4	28.4	28.4	81	23.3	0	0	---	0.00	30.162 
07:15	28.4	28.4	28.4	81	23.3	0	0	---	0.00	30.162 
07:20	28.4	28.4	28.4	81	23.3	0	0	---	0.00	30.162 
07:25	28.4	28.4	28.4	81	23.3	0	0	---	0.00	30.162 
07:30	28.4	28.4	28.4	81	23.3	0	0	---	0.00	30.159 
07:35	28.4	28.4	28.4	81	23.3	0	0	---	0.00	30.159 
07:40	28.4	28.4	28.4	81	23.3	0	0	---	0.00	30.159 
07:45	28.4	28.4	28.4	81	23.3	0	0	---	0.00	30.156 
07:50	28.4	28.4	28.4	81	23.3	0	0	---	0.00	30.156 
07:55	28.4	28.4	28.4	81	23.3	0	0	---	0.00	30.156 
08:00	28.4	28.4	28.4	81	23.3	0	1	248	0.00	30.145 
08:05	28.4	28.4	28.4	81	23.3	0	0	---	0.00	30.145 
08:10	28.5	28.5	28.5	81	23.4	0	1	248	0.00	30.145 
08:15	28.5	28.5	28.5	81	23.4	0	0	---	0.00	30.152 
08:20	28.7	28.7	28.7	81	23.6	0	0	---	0.00	30.152 
08:25	28.8	28.8	28.8	81	23.7	0	0	---	0.00	30.152 
08:30	28.8	28.8	28.8	81	23.7	0	0	---	0.00	30.154 
08:35	29.0	29.0	29.0	81	23.9	0	0	---	0.00	30.154 
08:40	29.1	29.1	29.1	80	23.7	0	1	248	0.00	30.154 
08:45	29.3	29.3	29.3	80	23.9	0	1	248	0.00	30.149 
08:50	29.4	29.4	29.4	80	24.0	0	0	---	0.00	30.149 
08:55	29.5	29.5	29.5	80	24.1	0	1	248	0.00	30.149 
09:00	29.5	29.5	29.5	80	24.1	0	1	248	0.00	30.150 
09:05	29.7	29.7	29.7	80	24.3	0	0	---	0.00	30.150 
09:10	29.8	29.8	29.8	80	24.4	0	1	248	0.00	30.150 
09:15	29.8	29.8	29.8	80	24.4	0	0	---	0.00	30.148 
09:20	30.0	30.0	30.0	79	24.3	0	1	248	0.00	30.148 
09:25	30.1	30.1	30.1	79	24.4	0	1	248	0.00	30.148 
09:30	30.3	30.3	30.3	80	24.9	0	1	248	0.00	30.141 
09:35	30.3	30.3	30.3	80	24.9	0	1	248	0.00	30.141 
09:40	30.6	30.6	30.6	80	25.2	0	1	248	0.00	30.141 
09:45	30.7	30.7	30.7	80	25.3	0	1	248	0.00	30.140 
09:50	30.9	30.9	30.9	79	25.2	0	2	248	0.00	30.140 
09:55	30.7	30.7	30.7	79	25.0	0	3	248	0.00	30.140 
10:00	30.7	30.7	30.7	79	25.0	0	1	248	0.00	30.138 
10:05	30.9	30.9	30.9	79	25.2	0	1	248	0.00	30.138 
10:10	30.9	30.9	30.9	79	25.2	0	1	248	0.00	30.138 
10:15	31.0	31.0	31.0	78	25.0	0	2	248	0.00	30.150 
10:20	30.9	30.9	30.9	77	24.6	0	2	248	0.00	30.150 
10:25	30.9	30.9	30.9	77	24.6	0	2	248	0.00	30.150 
10:30	30.9	30.9	30.9	78	24.9	0	2	248	0.00	30.136 
10:35	30.9	30.9	30.9	77	24.6	0	1	248	0.00	30.136 
10:40	31.0	31.0	31.0	77	24.7	0	1	248	0.00	30.136 
10:45	31.0	31.0	31.0	77	24.7	0	2	248	0.00	30.137 
10:50	31.2	31.2	31.2	77	24.8	0	1	248	0.00	30.137 
10:55	31.3	31.3	31.3	76	24.6	0	1	248	0.00	30.137 
11:00	31.5	31.5	31.5	76	24.8	0	1	248	0.00	30.140 
11:05	31.5	31.5	31.5	75	24.5	0	2	248	0.00	30.140 
11:10	31.5	31.5	31.5	74	24.2	0	4	248	0.00	30.140 
11:15	31.6	31.6	31.6	74	24.3	0	1	248	0.00	30.134 
11:20	31.6	31.6	31.6	74	24.3	0	1	248	0.00	30.134 
11:25	31.8	31.8	31.8	73	24.1	0	1	248	0.00	30.134 
11:30	31.8	31.8	31.8	73	24.1	0	4	248	0.00	30.128 
11:35	31.9	31.9	31.9	73	24.2	0	1	248	0.00	30.128 
11:40	32.1	32.1	32.1	73	24.4	0	1	248	0.00	30.128 
11:45	32.2	32.2	32.2	72	24.2	0	1	248	0.00	30.123 
11:50	32.1	32.1	32.1	72	24.1	0	1	248	0.00	30.123 
11:55	32.1	32.1	32.1	72	24.1	0	1	248	0.00	30.123 
12:00	32.1	32.1	32.1	73	24.4	0	1	248	0.00	30.120 
12:05	32.1	32.1	32.1	73	24.4	0	1	248	0.00	30.120 
12:10	32.2	32.2	32.2	73	24.5	0	1	248	0.00	30.120 
12:15	32.2	32.2	32.2	72	24.2	0	1	248	0.00	30.105 
12:20	32.2	32.2	32.2	72	24.2	0	1	248	0.00	30.105 
12:25	32.2	32.2	32.2	71	23.9	0	1	248	0.00	30.105 
12:30	32.2	32.2	32.2	71	23.9	0	2	248	0.00	30.105 
12:35	32.4	32.4	32.4	71	24.1	0	2	248	0.00	30.105 
12:40	32.4	32.4	32.4	72	24.4	0	1	248	0.00	30.105 
12:45	32.4	32.4	32.4	72	24.4	0	0	---	0.00	30.091 
12:50	32.5	32.5	32.5	72	24.5	0	1	248	0.00	30.091 
12:55	32.5	32.5	32.5	73	24.8	0	1	248	0.00	30.091 
13:00	32.7	32.7	32.7	73	25.0	0	1	248	0.00	30.087 
13:05	32.7	32.7	32.7	73	25.0	0	2	248	0.00	30.087 
13:10	32.7	32.7	32.7	74	25.3	0	1	248	0.00	30.087 
13:15	32.7	32.7	32.7	74	25.3	0	1	248	0.00	30.075 
13:20	32.5	32.5	32.5	74	25.2	0	1	248	0.00	30.075 
13:25	32.5	32.5	32.5	75	25.5	0	1	248	0.00	30.075 
13:30	32.5	32.5	32.5	75	25.5	0	0	---	0.00	30.070 
13:35	32.4	32.4	32.4	75	25.4	0	1	248	0.00	30.070 
13:40	32.5	32.5	32.5	75	25.5	0	0	---	0.00	30.070 
13:45	32.7	32.7	32.7	75	25.7	0	1	248	0.00	30.060 
13:50	32.8	32.8	32.8	74	25.4	0	2	248	0.00	30.060 
13:55	32.8	32.8	32.8	74	25.4	0	0	---	0.00	30.060 
14:00	32.9	32.9	32.9	74	25.5	0	1	248	0.00	30.058 
14:05	32.8	32.8	32.8	74	25.4	0	1	248	0.00	30.058 
14:10	32.8	32.8	32.8	73	25.1	0	1	248	0.00	30.058 
14:15	32.7	32.7	32.7	72	24.7	0	1	248	0.00	30.049 
14:20	32.7	32.7	32.7	73	25.0	0	1	248	0.00	30.049 
14:25	32.7	32.7	32.7	72	24.7	0	1	248	0.00	30.049 
14:30	32.7	32.7	32.7	73	25.0	0	1	248	0.00	30.041 
14:35	32.7	32.7	32.7	73	25.0	0	2	248	0.00	30.041 
14:40	32.7	32.7	32.7	73	25.0	0	1	248	0.00	30.041 
14:45	32.8	32.8	32.8	73	25.1	0	0	---	0.00	30.026 
14:50	32.8	32.8	32.8	74	25.4	0	1	248	0.00	30.026 
14:55	32.7	32.7	32.7	75	25.7	0	1	248	0.00	30.026 
15:00	32.7	32.7	32.7	76	26.0	0	1	248	0.00	30.026 
15:05	32.5	32.5	32.5	77	26.1	0	0	---	0.00	30.026 
15:10	32.5	32.5	32.5	77	26.1	0	1	248	0.00	30.026 
15:15	32.4	32.4	32.4	79	26.6	0	1	248	0.00	30.032 
15:20	32.4	32.4	32.4	80	26.9	0	1	248	0.00	30.032 
15:25	32.2	32.2	32.2	81	27.0	0	1	248	0.00	30.032 
15:30	32.1	32.1	32.1	82	27.2	0	1	248	0.00	30.037 
15:35	31.9	31.9	31.9	83	27.3	0	1	248	0.00	30.037 
15:40	31.8	31.8	31.8	84	27.5	0	1	248	0.00	30.037 
15:45	31.6	31.6	31.6	84	27.3	0	1	248	0.00	30.025 
15:50	31.5	31.5	31.5	85	27.5	0	1	248	0.00	30.025 
15:55	31.5	31.5	31.5	86	27.8	0	1	248	0.00	30.025 
16:00	31.3	31.3	31.3	86	27.6	0	1	248	0.00	30.026 
16:05	31.3	31.3	31.3	87	27.9	0	1	248	0.00	30.026 
16:10	31.3	31.3	31.3	87	27.9	0	1	248	0.00	30.026 
16:15	31.3	31.3	31.3	88	28.2	0	0	---	0.00	30.027 
16:20	31.2	31.2	31.2	88	28.1	0	0	---	0.00	30.027 
16:25	31.2	31.2	31.2	88	28.1	0	0	---	0.00	30.027 
16:30	31.2	31.2	31.2	88	28.1	0	0	---	0.00	30.036 
16:35	31.2	31.2	31.2	88	28.1	0	1	248	0.00	30.036 
16:40	31.2	31.2	31.2	88	28.1	0	0	---	0.00	30.036 
16:45	31.2	31.2	31.2	89	28.3	0	0	---	0.00	30.036 
16:50	31.0	31.0	31.0	89	28.1	0	1	248	0.00	30.036 
16:55	30.9	30.9	30.9	89	28.0	0	0	---	0.00	30.036 
17:00	30.9	30.9	30.9	89	28.0	0	0	---	0.00	30.035 
17:05	30.7	30.7	30.7	89	27.8	0	1	248	0.00	30.035 
17:10	30.7	30.7	30.7	89	27.8	0	0	---	0.00	30.035 
17:15	30.6	30.6	30.6	89	27.8	0	1	248	0.00	30.028 
17:20	30.4	30.4	30.4	89	27.6	0	0	---	0.00	30.028 
17:25	30.4	30.4	30.4	90	27.8	0	0	---	0.00	30.028 
17:30	30.4	30.4	30.4	90	27.8	0	0	---	0.00	30.027 
17:35	30.4	30.4	30.4	90	27.8	0	0	---	0.00	30.027 
17:40	30.3	30.3	30.3	90	27.7	0	0	---	0.00	30.027 
17:45	30.3	30.3	30.3	90	27.7	0	0	---	0.00	30.018 
17:50	30.3	30.3	30.3	90	27.7	0	0	---	0.00	30.018 
17:55	30.3	30.3	30.3	90	27.7	0	0	---	0.00	30.018 
18:00	30.3	30.3	30.3	91	28.0	0	0	---	0.00	30.013 
18:05	30.3	30.3	30.3	91	28.0	0	0	---	0.00	30.013 
18:10	30.3	30.3	30.3	91	28.0	0	0	---	0.00	30.013 
18:15	30.3	30.3	30.3	91	28.0	0	0	---	0.00	30.015 
18:20	30.3	30.3	30.3	91	28.0	0	0	---	0.00	30.015 
18:25	30.3	30.3	30.3	91	28.0	0	0	---	0.00	30.015 
18:30	30.3	30.3	30.3	91	28.0	0	0	---	0.00	30.010 
18:35	30.3	30.3	30.3	91	28.0	0	0	---	0.00	30.010 
18:40	30.3	30.3	30.3	92	28.3	0	0	---	0.00	30.010 
18:45	30.3	30.3	30.3	92	28.3	0	0	---	0.00	30.008 
18:50	30.3	30.3	30.3	92	28.3	0	0	---	0.00	30.008 
18:55	30.3	30.3	30.3	92	28.3	0	0	---	0.00	30.008 
19:00	30.3	30.3	30.3	92	28.3	0	0	---	0.00	29.997 
19:05	30.3	30.3	30.3	92	28.3	0	0	---	0.00	29.997 
19:10	30.3	30.3	30.3	92	28.3	0	0	---	0.00	29.997 
19:15	30.3	30.3	30.3	92	28.3	0	0	---	0.00	29.997 
19:20	30.3	30.3	30.3	92	28.3	0	0	---	0.00	29.997 
19:25	30.3	30.3	30.3	92	28.3	0	0	---	0.00	29.997 
19:30	30.1	30.1	30.1	92	28.1	0	0	---	0.00	29.991 
19:35	30.1	30.1	30.1	92	28.1	0	0	---	0.00	29.991 
19:40	30.1	30.1	30.1	92	28.1	0	0	---	0.00	29.991 
19:45	30.0	30.0	30.0	92	28.0	0	0	---	0.00	29.983 
19:50	30.0	30.0	30.0	92	28.0	0	0	---	0.00	29.983 
19:55	30.0	30.0	30.0	92	28.0	0	0	---	0.00	29.983 
20:00	30.0	30.0	30.0	92	28.0	0	0	---	0.00	29.981 
20:05	30.0	30.0	30.0	92	28.0	0	0	---	0.00	29.981 
20:10	30.0	30.0	30.0	92	28.0	0	0	---	0.00	29.981 
20:15	30.0	30.0	30.0	92	28.0	0	0	---	0.00	29.977 
20:20	30.0	30.0	30.0	92	28.0	0	0	---	0.00	29.977 
20:25	30.0	30.0	30.0	92	28.0	0	0	---	0.00	29.977 
20:30	30.0	30.0	30.0	92	28.0	0	0	---	0.00	29.967 
20:35	29.8	29.8	29.8	92	27.8	0	0	---	0.00	29.967 
20:40	29.8	29.8	29.8	92	27.8	0	0	---	0.00	29.967 
20:45	29.8	29.8	29.8	92	27.8	0	0	---	0.00	29.960 
20:50	29.8	29.8	29.8	92	27.8	0	0	---	0.00	29.960 
20:55	29.8	29.8	29.8	92	27.8	0	0	---	0.00	29.960 
21:00	29.8	29.8	29.8	92	27.8	0	0	---	0.00	29.955 
21:05	29.8	29.8	29.8	92	27.8	0	0	---	0.00	29.955 
21:10	29.8	29.8	29.8	92	27.8	0	0	---	0.00	29.955 
21:15	29.8	29.8	29.8	92	27.8	0	0	---	0.00	29.949 
21:20	29.8	29.8	29.8	93	28.0	0	0	---	0.00	29.949 
21:25	29.8	29.8	29.8	93	28.0	0	0	---	0.00	29.949 
21:30	29.8	29.8	29.8	93	28.0	0	0	---	0.00	29.949 
21:35	29.8	29.8	29.8	93	28.0	0	0	---	0.00	29.949 
21:40	29.8	29.8	29.8	93	28.0	0	0	---	0.00	29.949 
21:45	29.8	29.8	29.8	93	28.0	0	0	---	0.00	29.943 
21:50	29.8	29.8	29.8	93	28.0	0	0	---	0.00	29.943 
21:55	29.8	29.8	29.8	93	28.0	0	0	---	0.00	29.943 
22:00	29.8	29.8	29.8	93	28.0	0	0	---	0.00	29.933 
22:05	29.8	29.8	29.8	93	28.0	0	0	---	0.00	29.933 
22:10	29.8	29.8	29.8	93	28.0	0	0	---	0.00	29.933 
22:15	29.7	29.7	29.7	93	27.9	0	0	---	0.00	29.930 
22:20	29.7	29.7	29.7	93	27.9	0	0	---	0.00	29.930 
22:25	29.7	29.7	29.7	93	27.9	0	0	---	0.00	29.930 
22:30	29.7	29.7	29.7	93	27.9	0	0	---	0.00	29.927 
22:35	29.7	29.7	29.7	93	27.9	0	0	---	0.00	29.927 
22:40	29.7	29.7	29.7	93	27.9	0	0	---	0.00	29.927 
22:45	29.7	29.7	29.7	93	27.9	0	0	---	0.00	29.923 
22:50	29.7	29.7	29.7	93	27.9	0	0	---	0.00	29.923 
22:55	29.7	29.7	29.7	93	27.9	0	0	---	0.00	29.923 
23:00	29.7	29.7	29.7	93	27.9	0	0	---	0.00	29.914 
23:05	29.7	29.7	29.7	93	27.9	0	0	---	0.00	29.914 
23:10	29.7	29.7	29.7	93	27.9	0	0	---	0.00	29.914 
23:15	29.7	29.7	29.7	93	27.9	0	0	---	0.00	29.909 
23:20	29.5	29.5	29.5	93	27.7	0	0	---	0.00	29.909 
23:25	29.5	29.5	29.5	93	27.7	0	0	---	0.00	29.909 
23:30	29.5	29.5	29.5	93	27.7	0	0	---	0.00	29.912 
23:35	29.5	29.5	29.5	93	27.7	0	0	---	0.00	29.912 
23:40	29.5	29.5	29.5	93	27.7	0	0	---	0.00	29.912 
23:45	29.5	29.5	29.5	93	27.7	0	0	---	0.00	29.908 
23:50	29.5	29.5	29.5	93	27.7	0	0	---	0.00	29.908 
23:55	29.5	29.5	29.5	93	27.7	0	0	---	0.00	29.908 

CoCoRaHS
IN-AL-39
A2 Web Hosting
Creative Commons License
GoDaddy
search engine by freefind advanced

loaded 2018-11-17 13:59:47 • last modified 2010-11-18 10:43:29
Privacy PolicyDisclaimer
• wx.awcolley.com is powered by PmWiki v.2002016 •
• all content (unless otherwise noted) © 2018 A W Colley